Time;durP1;ratioP1;P1;durP2;ratioP2;P2;SDS_P1;SDS_P2;PMS_P1;PMS_P2;Temp;Humidity;BMP_temperature;BMP_pressure;BME280_temperature;BME280_humidity;BME280_pressure;Samples;Min_cycle;Max_cycle;Signal;HPM_P1;HPM_P2
2022/06/28 00:00:01;;;;;;;1999.90;999.90;;;15.20;99.90;;;;;;5099691;28;20057;-82
2022/06/28 00:02:26;;;;;;;1999.90;999.90;;;15.20;99.90;;;;;;5078514;28;20052;-90
2022/06/28 00:04:52;;;;;;;1999.90;999.90;;;15.30;99.90;;;;;;5088819;28;20020;-82
2022/06/28 00:07:18;;;;;;;1999.90;999.90;;;15.30;99.90;;;;;;5077474;28;20063;-82
2022/06/28 00:09:44;;;;;;;1999.90;999.90;;;15.20;99.90;;;;;;5089571;28;20031;-81
2022/06/28 00:12:10;;;;;;;1999.90;999.90;;;15.20;99.90;;;;;;5070986;28;20028;-81
2022/06/28 00:17:20;;;;;;;1999.90;999.90;;;15.20;99.90;;;;;;5089573;28;20059;-82
2022/06/28 00:19:45;;;;;;;1999.90;999.90;;;15.30;99.90;;;;;;5084145;28;20028;-81
2022/06/28 00:22:11;;;;;;;1999.90;999.90;;;15.20;99.90;;;;;;5106448;28;20077;-82
2022/06/28 00:24:37;;;;;;;1999.90;999.90;;;15.10;99.90;;;;;;5096766;28;20104;-83
2022/06/28 00:27:03;;;;;;;1999.90;999.90;;;15.20;99.90;;;;;;5082513;28;20024;-82
2022/06/28 00:29:29;;;;;;;1999.90;999.90;;;15.20;99.90;;;;;;5097146;28;20020;-81
2022/06/28 00:31:54;;;;;;;1999.90;999.90;;;15.20;99.90;;;;;;5080634;28;20473;-82
2022/06/28 00:34:20;;;;;;;1999.90;999.90;;;15.20;99.90;;;;;;5091804;28;20099;-85
2022/06/28 00:36:46;;;;;;;1999.90;999.90;;;15.10;99.90;;;;;;5042497;28;20089;-82
2022/06/28 00:39:12;;;;;;;1999.90;999.90;;;15.10;99.90;;;;;;5072075;28;20070;-82
2022/06/28 00:41:38;;;;;;;1999.90;999.90;;;15.20;99.90;;;;;;5092868;28;20023;-82
2022/06/28 00:44:04;;;;;;;1999.90;999.90;;;15.20;99.90;;;;;;5088821;28;20035;-82
2022/06/28 00:46:33;;;;;;;1999.90;999.90;;;15.20;99.90;;;;;;5073456;28;20028;-82
2022/06/28 00:49:00;;;;;;;1999.90;999.90;;;15.20;99.90;;;;;;5087586;28;20023;-82
2022/06/28 00:51:26;;;;;;;1999.90;999.90;;;15.10;99.90;;;;;;5085296;28;20118;-82
2022/06/28 00:53:52;;;;;;;1999.90;999.90;;;15.20;99.90;;;;;;5107852;28;20028;-82
2022/06/28 00:56:18;;;;;;;1999.90;999.90;;;15.10;99.90;;;;;;5084085;28;20039;-83
2022/06/28 00:58:43;;;;;;;1999.90;999.90;;;15.20;99.90;;;;;;5083771;28;20754;-82
2022/06/28 01:01:09;;;;;;;1999.90;999.90;;;15.20;99.90;;;;;;5082079;28;20043;-82
2022/06/28 01:03:36;;;;;;;1999.90;999.90;;;15.20;99.90;;;;;;5099664;28;20059;-81
2022/06/28 01:06:01;;;;;;;1999.90;999.90;;;15.10;99.90;;;;;;5094284;28;20035;-81
2022/06/28 01:08:27;;;;;;;1999.90;999.90;;;15.20;99.90;;;;;;5065537;28;20442;-80
2022/06/28 01:10:53;;;;;;;1999.90;999.90;;;15.20;99.90;;;;;;5076170;28;20119;-82
2022/06/28 01:13:19;;;;;;;1999.90;999.90;;;15.10;99.90;;;;;;5090043;28;20039;-82
2022/06/28 01:15:44;;;;;;;1999.90;999.90;;;15.20;99.90;;;;;;5069378;28;20056;-82
2022/06/28 01:18:12;;;;;;;1999.90;999.90;;;15.10;99.90;;;;;;5064308;28;20036;-83
2022/06/28 01:20:40;;;;;;;1999.90;999.90;;;15.00;99.90;;;;;;5083224;28;20705;-82
2022/06/28 01:23:07;;;;;;;1999.90;999.90;;;15.00;99.90;;;;;;5087402;28;20035;-82
2022/06/28 01:25:33;;;;;;;1999.90;999.90;;;15.00;99.90;;;;;;5086068;28;20475;-81
2022/06/28 01:27:59;;;;;;;1999.90;999.90;;;15.00;99.90;;;;;;5088925;28;20082;-82
2022/06/28 01:30:26;;;;;;;1999.90;999.90;;;15.00;99.90;;;;;;5059631;28;20050;-83
2022/06/28 01:32:53;;;;;;;1999.90;999.90;;;15.10;99.90;;;;;;5085393;28;20098;-82
2022/06/28 01:35:18;;;;;;;1999.90;999.90;;;15.00;99.90;;;;;;5070590;28;20070;-82
2022/06/28 01:37:45;;;;;;;1999.90;999.90;;;15.10;99.90;;;;;;5098842;28;20040;-82
2022/06/28 01:40:11;;;;;;;1999.90;999.90;;;15.10;99.90;;;;;;5081240;28;20035;-82
2022/06/28 01:42:37;;;;;;;1999.90;999.90;;;15.10;99.90;;;;;;5095751;28;20032;-81
2022/06/28 01:45:03;;;;;;;1999.90;999.90;;;15.00;99.90;;;;;;5074011;28;20782;-82
2022/06/28 01:47:32;;;;;;;1999.90;999.90;;;15.00;99.90;;;;;;5074318;28;20089;-81
2022/06/28 01:49:58;;;;;;;1999.90;999.90;;;15.20;99.90;;;;;;5097285;28;20623;-82
2022/06/28 01:52:23;;;;;;;1999.90;999.90;;;15.30;99.90;;;;;;5086595;28;20031;-84
2022/06/28 01:54:49;;;;;;;1999.90;999.90;;;15.30;99.90;;;;;;5099203;28;20031;-81
2022/06/28 01:57:15;;;;;;;1999.90;999.90;;;15.30;99.90;;;;;;5090523;28;20506;-82
2022/06/28 01:59:43;;;;;;;1999.90;999.90;;;15.30;99.90;;;;;;5083580;28;20031;-82
2022/06/28 02:02:08;;;;;;;1999.90;999.90;;;15.30;99.90;;;;;;5076884;28;20043;-82
2022/06/28 02:04:34;;;;;;;1999.90;999.90;;;15.30;99.90;;;;;;5098406;28;20098;-83
2022/06/28 02:07:00;;;;;;;1999.90;999.90;;;15.30;99.90;;;;;;5097280;28;20020;-82
2022/06/28 02:09:26;;;;;;;1999.90;999.90;;;15.30;99.90;;;;;;5097034;28;20028;-82
2022/06/28 02:11:53;;;;;;;1999.90;999.90;;;15.40;99.90;;;;;;5060821;28;20040;-82
2022/06/28 02:14:19;;;;;;;1999.90;999.90;;;15.30;99.90;;;;;;5092401;28;20040;-81
2022/06/28 02:16:45;;;;;;;1999.90;999.90;;;15.30;99.90;;;;;;5072038;28;20043;-82
2022/06/28 02:19:11;;;;;;;1999.90;999.90;;;15.30;99.90;;;;;;5060251;28;20154;-82
2022/06/28 02:21:39;;;;;;;1999.90;999.90;;;15.30;99.90;;;;;;5090263;28;20048;-82
2022/06/28 02:24:06;;;;;;;1999.90;999.90;;;15.30;99.90;;;;;;5103842;28;20037;-82
2022/06/28 02:26:33;;;;;;;1999.90;999.90;;;15.30;99.90;;;;;;5099867;28;20050;-83
2022/06/28 02:29:03;;;;;;;1999.90;999.90;;;15.30;99.90;;;;;;5097096;28;20031;-81
2022/06/28 02:31:29;;;;;;;1999.90;999.90;;;15.30;99.90;;;;;;5097724;28;20033;-82
2022/06/28 02:33:55;;;;;;;1999.90;999.90;;;15.30;99.90;;;;;;5095157;28;20021;-82
2022/06/28 02:41:36;;;;;;;1999.90;999.90;;;15.40;99.90;;;;;;5095809;28;20126;-81
2022/06/28 02:44:01;;;;;;;1999.90;999.90;;;15.50;99.90;;;;;;5070170;28;20025;-82
2022/06/28 02:46:27;;;;;;;1999.90;999.90;;;15.50;99.90;;;;;;5056794;28;20499;-82
2022/06/28 02:48:53;;;;;;;1999.90;999.90;;;15.50;99.90;;;;;;5076255;28;20024;-82
2022/06/28 02:51:20;;;;;;;1999.90;999.90;;;15.40;99.90;;;;;;5103978;28;20115;-82
2022/06/28 02:53:49;;;;;;;1999.90;999.90;;;15.40;99.90;;;;;;5081337;28;20110;-81
2022/06/28 02:56:15;;;;;;;1999.90;999.90;;;15.40;99.90;;;;;;5101579;28;20028;-81
2022/06/28 02:58:40;;;;;;;1999.90;999.90;;;15.40;99.90;;;;;;5077860;28;20057;-82
2022/06/28 03:01:07;;;;;;;1999.90;999.90;;;15.40;99.90;;;;;;5081817;28;20078;-81
2022/06/28 03:03:33;;;;;;;1999.90;999.90;;;15.40;99.90;;;;;;5080103;28;20193;-81
2022/06/28 03:05:58;;;;;;;1999.90;999.90;;;15.50;99.90;;;;;;5095647;28;20502;-82
2022/06/28 03:08:24;;;;;;;1999.90;999.90;;;15.50;99.90;;;;;;5091503;28;20112;-81
2022/06/28 03:10:50;;;;;;;1999.90;999.90;;;15.40;99.90;;;;;;5089597;28;20089;-81
2022/06/28 03:13:15;;;;;;;1999.90;999.90;;;15.50;99.90;;;;;;5089939;28;20036;-82
2022/06/28 03:15:41;;;;;;;1999.90;999.90;;;15.60;99.90;;;;;;5094024;28;20538;-82
2022/06/28 03:18:07;;;;;;;1999.90;999.90;;;15.50;99.90;;;;;;5070180;28;20036;-88
2022/06/28 03:20:33;;;;;;;1999.90;999.90;;;15.40;99.90;;;;;;5100114;28;20567;-83
2022/06/28 03:22:58;;;;;;;1999.90;999.90;;;15.50;99.90;;;;;;5103113;28;20031;-82
2022/06/28 03:25:24;;;;;;;1999.90;999.90;;;15.40;99.90;;;;;;5081904;28;20050;-82
2022/06/28 03:27:50;;;;;;;1999.90;999.90;;;15.40;99.90;;;;;;5060561;28;20518;-82
2022/06/28 03:30:16;;;;;;;1999.90;999.90;;;15.50;99.90;;;;;;5098204;28;20016;-82
2022/06/28 03:32:42;;;;;;;1999.90;999.90;;;15.40;99.90;;;;;;5074918;28;20629;-81
2022/06/28 03:35:09;;;;;;;1999.90;999.90;;;15.50;99.90;;;;;;5076351;28;20060;-81
2022/06/28 03:37:36;;;;;;;1999.90;999.90;;;15.40;99.90;;;;;;5087057;28;20027;-82
2022/06/28 03:40:02;;;;;;;1999.90;999.90;;;15.50;99.90;;;;;;5075431;28;20390;-86
2022/06/28 03:42:28;;;;;;;1999.90;999.90;;;15.40;99.90;;;;;;5092173;28;20058;-83
2022/06/28 03:44:54;;;;;;;1999.90;999.90;;;15.40;99.90;;;;;;5093053;28;20426;-82
2022/06/28 03:47:20;;;;;;;1999.90;999.90;;;15.60;99.90;;;;;;5073820;28;20491;-82
2022/06/28 03:49:47;;;;;;;1999.90;999.90;;;15.50;99.90;;;;;;5096619;28;20043;-82
2022/06/28 03:52:13;;;;;;;1999.90;999.90;;;15.50;99.90;;;;;;5098472;28;20032;-83
2022/06/28 03:54:39;;;;;;;1999.90;999.90;;;15.50;99.90;;;;;;5093050;28;20043;-82
2022/06/28 03:57:05;;;;;;;1999.90;999.90;;;15.60;99.90;;;;;;5065862;28;20047;-82
2022/06/28 03:59:31;;;;;;;1999.90;999.90;;;15.60;99.90;;;;;;5095450;28;20028;-82
2022/06/28 04:01:56;;;;;;;1999.90;999.90;;;15.70;99.90;;;;;;5095443;28;20044;-83
2022/06/28 04:04:22;;;;;;;1999.90;999.90;;;15.60;99.90;;;;;;5077663;28;20039;-82
2022/06/28 04:06:48;;;;;;;1999.90;999.90;;;15.60;99.90;;;;;;5074145;28;20028;-81
2022/06/28 04:09:13;;;;;;;1999.90;999.90;;;15.60;99.90;;;;;;5075762;28;20036;-81
2022/06/28 04:11:39;;;;;;;1999.90;999.90;;;15.60;99.90;;;;;;5070475;28;20080;-81
2022/06/28 04:14:05;;;;;;;1999.90;999.90;;;15.50;99.90;;;;;;5093192;28;20104;-83
2022/06/28 04:16:32;;;;;;;1999.90;999.90;;;15.60;99.90;;;;;;5065704;28;20039;-82
2022/06/28 04:18:58;;;;;;;1999.90;999.90;;;15.60;99.90;;;;;;5069630;28;20123;-81
2022/06/28 04:21:23;;;;;;;1999.90;999.90;;;15.60;99.90;;;;;;5098827;28;20465;-82
2022/06/28 04:23:49;;;;;;;1999.90;999.90;;;15.40;99.90;;;;;;5100945;28;20055;-81
2022/06/28 04:26:15;;;;;;;1999.90;999.90;;;15.50;99.90;;;;;;5095767;28;20096;-83
2022/06/28 04:28:41;;;;;;;1999.90;999.90;;;15.80;99.90;;;;;;5081449;28;20102;-82
2022/06/28 04:31:07;;;;;;;1999.90;999.90;;;15.80;99.90;;;;;;5076236;28;20024;-81
2022/06/28 04:33:33;;;;;;;1999.90;999.90;;;15.90;99.90;;;;;;5077729;28;20424;-82
2022/06/28 04:35:59;;;;;;;1999.90;999.90;;;16.00;99.90;;;;;;5077597;28;20526;-82
2022/06/28 04:38:24;;;;;;;1999.90;999.90;;;16.00;99.90;;;;;;5072433;28;20036;-83
2022/06/28 04:40:50;;;;;;;1999.90;999.90;;;15.90;99.90;;;;;;5072487;28;20782;-81
2022/06/28 04:43:16;;;;;;;1999.90;999.90;;;15.90;99.90;;;;;;5049313;28;20044;-82
2022/06/28 04:45:42;;;;;;;1999.90;999.90;;;16.00;99.90;;;;;;5085369;28;20027;-82
2022/06/28 04:48:08;;;;;;;1999.90;999.90;;;16.00;99.90;;;;;;5077642;28;20793;-84
2022/06/28 04:50:33;;;;;;;1999.90;999.90;;;16.10;99.90;;;;;;5066397;28;20028;-84
2022/06/28 04:52:59;;;;;;;1999.90;999.90;;;16.30;99.90;;;;;;5061498;28;20109;-84
2022/06/28 04:55:25;;;;;;;1999.90;999.90;;;16.30;99.90;;;;;;5072205;28;20028;-85
2022/06/28 04:57:51;;;;;;;1999.90;999.90;;;16.50;99.90;;;;;;5079165;28;20440;-84
2022/06/28 05:00:17;;;;;;;1999.90;999.90;;;16.40;99.90;;;;;;5090769;28;20494;-84
2022/06/28 05:02:43;;;;;;;1999.90;999.90;;;16.40;99.90;;;;;;5049536;28;21543;-90
2022/06/28 05:05:09;;;;;;;1999.90;999.90;;;16.20;99.90;;;;;;5065004;28;20051;-85
2022/06/28 05:07:36;;;;;;;1999.90;999.90;;;16.40;99.90;;;;;;5089931;28;20024;-85
2022/06/28 05:10:03;;;;;;;1999.90;999.90;;;16.50;99.90;;;;;;5064086;28;20032;-85
2022/06/28 05:12:29;;;;;;;1999.90;999.90;;;16.20;99.90;;;;;;5084321;28;20048;-85
2022/06/28 05:14:54;;;;;;;1999.90;999.90;;;16.30;99.90;;;;;;5080208;28;20380;-86
2022/06/28 05:17:20;;;;;;;1999.90;999.90;;;16.20;99.90;;;;;;5052705;28;20032;-85
2022/06/28 05:19:46;;;;;;;1999.90;999.90;;;16.30;99.90;;;;;;5067514;28;20099;-84
2022/06/28 05:22:11;;;;;;;1999.90;999.90;;;16.50;99.90;;;;;;5065797;28;20092;-84
2022/06/28 05:24:37;;;;;;;1999.90;999.90;;;16.50;99.90;;;;;;5085304;28;20395;-84
2022/06/28 05:27:04;;;;;;;1999.90;999.90;;;16.40;99.90;;;;;;5049260;28;20028;-84
2022/06/28 05:29:29;;;;;;;1999.90;999.90;;;16.30;99.90;;;;;;5091684;28;20027;-81
2022/06/28 05:31:55;;;;;;;1999.90;999.90;;;16.40;99.90;;;;;;5074533;28;20043;-80
2022/06/28 05:34:21;;;;;;;1999.90;999.90;;;16.40;99.90;;;;;;5079188;28;20411;-79
2022/06/28 05:36:47;;;;;;;1999.90;999.90;;;16.50;99.90;;;;;;5075162;28;20506;-80
2022/06/28 05:39:12;;;;;;;1999.90;999.90;;;16.50;99.90;;;;;;5069587;28;20071;-80
2022/06/28 05:41:41;;;;;;;1999.90;999.90;;;16.40;99.90;;;;;;5072102;28;20063;-79
2022/06/28 05:44:08;;;;;;;1999.90;999.90;;;16.10;99.90;;;;;;5092234;28;20054;-79
2022/06/28 05:46:34;;;;;;;1999.90;999.90;;;16.20;99.90;;;;;;5085919;28;20102;-79
2022/06/28 05:49:00;;;;;;;1999.90;999.90;;;16.30;99.90;;;;;;5098608;28;20506;-85
2022/06/28 05:51:26;;;;;;;1999.90;999.90;;;16.40;99.90;;;;;;5083265;28;20042;-81
2022/06/28 05:53:51;;;;;;;1999.90;999.90;;;16.50;99.90;;;;;;5071893;28;20498;-80
2022/06/28 05:56:17;;;;;;;1999.90;999.90;;;16.50;99.90;;;;;;5084349;28;20123;-81
2022/06/28 05:58:42;;;;;;;1999.90;999.90;;;16.60;99.90;;;;;;5102954;28;20290;-81
2022/06/28 06:01:08;;;;;;;1999.90;999.90;;;16.80;99.90;;;;;;5099806;28;20120;-80
2022/06/28 06:03:34;;;;;;;1999.90;999.90;;;16.80;99.90;;;;;;5078612;28;20039;-81
2022/06/28 06:06:00;;;;;;;1999.90;999.90;;;17.00;99.90;;;;;;5077728;28;20032;-81
2022/06/28 06:08:25;;;;;;;1999.90;999.90;;;17.00;99.90;;;;;;5080574;28;20044;-80
2022/06/28 06:10:51;;;;;;;1999.90;999.90;;;17.10;99.90;;;;;;5088014;28;20096;-82
2022/06/28 06:13:17;;;;;;;1999.90;999.90;;;17.00;99.90;;;;;;5074485;28;20411;-84
2022/06/28 06:15:43;;;;;;;1999.90;999.90;;;16.80;99.90;;;;;;5088042;28;20213;-80
2022/06/28 06:18:08;;;;;;;1999.90;999.90;;;16.50;99.90;;;;;;5068515;28;20032;-79
2022/06/28 06:20:34;;;;;;;1999.90;999.90;;;16.30;99.90;;;;;;5103125;28;20047;-79
2022/06/28 06:23:00;;;;;;;1999.90;999.90;;;16.10;99.90;;;;;;5079919;28;20039;-79
2022/06/28 06:25:25;;;;;;;1999.90;999.90;;;16.00;99.90;;;;;;5088359;28;20094;-80
2022/06/28 06:27:51;;;;;;;1999.90;999.90;;;16.00;99.90;;;;;;5076393;28;20233;-80
2022/06/28 06:30:17;;;;;;;1999.90;999.90;;;15.90;99.90;;;;;;5075210;28;20028;-79
2022/06/28 06:32:43;;;;;;;1999.90;999.90;;;15.90;99.90;;;;;;5091890;28;20020;-79
2022/06/28 06:35:09;;;;;;;1999.90;999.90;;;15.90;99.90;;;;;;5072290;28;20042;-83
2022/06/28 06:37:35;;;;;;;1999.90;999.90;;;15.80;99.90;;;;;;5060174;28;20028;-79
2022/06/28 06:40:01;;;;;;;1999.90;999.90;;;15.70;99.90;;;;;;5076955;28;20079;-81
2022/06/28 06:42:27;;;;;;;1999.90;999.90;;;15.70;99.90;;;;;;5093028;28;20294;-79
2022/06/28 06:44:53;;;;;;;1999.90;999.90;;;15.60;99.90;;;;;;5068748;28;20519;-79
2022/06/28 06:47:18;;;;;;;1999.90;999.90;;;15.60;99.90;;;;;;5084871;28;20047;-80
2022/06/28 06:49:44;;;;;;;1999.90;999.90;;;15.50;99.90;;;;;;5092731;28;20502;-79
2022/06/28 06:52:10;;;;;;;1999.90;999.90;;;15.60;99.90;;;;;;5083981;28;20024;-81
2022/06/28 06:54:36;;;;;;;1999.90;999.90;;;15.60;99.90;;;;;;5083242;28;20456;-81
2022/06/28 06:57:01;;;;;;;1999.90;999.90;;;15.70;99.90;;;;;;5078255;28;20016;-81
2022/06/28 06:59:27;;;;;;;1999.90;999.90;;;15.50;99.90;;;;;;5095115;28;20244;-79
2022/06/28 07:01:52;;;;;;;1999.90;999.90;;;15.50;99.90;;;;;;5056951;28;20092;-80
2022/06/28 07:04:18;;;;;;;1999.90;999.90;;;15.60;99.90;;;;;;5091677;28;20036;-79
2022/06/28 07:06:44;;;;;;;1999.90;999.90;;;15.60;99.90;;;;;;5092242;28;20024;-80
2022/06/28 07:09:10;;;;;;;1999.90;999.90;;;15.80;99.90;;;;;;5086364;28;20024;-82
2022/06/28 07:11:35;;;;;;;1999.90;999.90;;;15.70;99.90;;;;;;5084740;28;20051;-80
2022/06/28 07:14:02;;;;;;;1999.90;999.90;;;15.90;99.90;;;;;;5069566;28;20126;-80
2022/06/28 07:16:27;;;;;;;1999.90;999.90;;;15.70;99.90;;;;;;5051105;28;20752;-81
2022/06/28 07:18:53;;;;;;;1999.90;999.90;;;15.70;99.90;;;;;;5065431;28;20047;-80
2022/06/28 07:21:19;;;;;;;1999.90;999.90;;;15.80;99.90;;;;;;5070690;28;20490;-84
2022/06/28 07:23:44;;;;;;;1999.90;999.90;;;15.70;99.90;;;;;;5101687;28;20502;-80
2022/06/28 07:26:11;;;;;;;1999.90;999.90;;;15.70;99.90;;;;;;5089258;28;20435;-80
2022/06/28 07:28:36;;;;;;;1999.90;999.90;;;16.00;99.90;;;;;;5085754;28;20024;-80
2022/06/28 07:31:02;;;;;;;1999.90;999.90;;;16.10;99.90;;;;;;5068881;28;20021;-80
2022/06/28 07:33:28;;;;;;;1999.90;999.90;;;16.00;99.90;;;;;;5078946;28;20478;-81
2022/06/28 07:35:53;;;;;;;1999.90;999.90;;;16.00;99.90;;;;;;5095662;28;20043;-80
2022/06/28 07:38:19;;;;;;;1999.90;999.90;;;16.10;99.90;;;;;;5072502;28;20081;-81
2022/06/28 07:40:45;;;;;;;1999.90;999.90;;;16.00;99.90;;;;;;5079442;28;20028;-80
2022/06/28 07:43:10;;;;;;;1999.90;999.90;;;16.40;99.90;;;;;;5089945;28;20076;-81
2022/06/28 07:45:38;;;;;;;1999.90;999.90;;;17.00;99.90;;;;;;5070214;28;20032;-80
2022/06/28 07:48:04;;;;;;;1999.90;999.90;;;17.40;99.90;;;;;;5089206;28;20012;-79
2022/06/28 07:53:14;;;;;;;1999.90;999.90;;;18.10;99.90;;;;;;5073017;28;20046;-86
2022/06/28 07:55:40;;;;;;;1999.90;999.90;;;17.90;99.90;;;;;;5073894;28;20039;-79
2022/06/28 07:58:05;;;;;;;1999.90;999.90;;;17.90;99.90;;;;;;5090192;28;20079;-79
2022/06/28 08:00:31;;;;;;;1999.90;999.90;;;17.50;99.90;;;;;;5072619;28;20047;-78
2022/06/28 08:02:57;;;;;;;1999.90;999.90;;;18.00;99.90;;;;;;5090643;28;20130;-79
2022/06/28 08:05:23;;;;;;;1999.90;999.90;;;18.10;99.90;;;;;;5073179;28;20032;-79
2022/06/28 08:07:49;;;;;;;1999.90;999.90;;;17.70;99.90;;;;;;5075895;28;20028;-79
2022/06/28 08:10:15;;;;;;;1999.90;999.90;;;17.60;99.90;;;;;;5074475;28;20035;-80
2022/06/28 08:12:42;;;;;;;1999.90;999.90;;;17.70;99.90;;;;;;5072338;28;20494;-79
2022/06/28 08:15:08;;;;;;;1999.90;999.90;;;17.70;99.90;;;;;;5032742;28;20520;-81
2022/06/28 08:17:34;;;;;;;1999.90;999.90;;;18.10;99.90;;;;;;5095541;28;20023;-80
2022/06/28 08:20:00;;;;;;;1999.90;999.90;;;18.20;99.90;;;;;;5089808;28;20030;-79
2022/06/28 08:22:26;;;;;;;1999.90;999.90;;;17.90;99.90;;;;;;5074813;28;20039;-80
2022/06/28 08:24:51;;;;;;;1999.90;999.90;;;17.80;99.90;;;;;;5075330;28;20430;-79
2022/06/28 08:27:17;;;;;;;1999.90;999.90;;;17.70;99.90;;;;;;5073743;28;20081;-81
2022/06/28 08:29:43;;;;;;;1999.90;999.90;;;17.70;99.90;;;;;;5084111;28;20032;-80
2022/06/28 08:32:10;;;;;;;1999.90;999.90;;;17.60;99.90;;;;;;5097067;28;20066;-80
2022/06/28 08:34:36;;;;;;;1999.90;999.90;;;18.00;99.90;;;;;;5090283;28;20077;-79
2022/06/28 08:37:02;;;;;;;1999.90;999.90;;;17.80;99.90;;;;;;5068372;28;20033;-80
2022/06/28 08:39:28;;;;;;;1999.90;999.90;;;17.80;99.90;;;;;;5064482;28;20794;-81
2022/06/28 08:41:54;;;;;;;1999.90;999.90;;;17.80;99.90;;;;;;5089811;28;20027;-82
2022/06/28 08:44:20;;;;;;;1999.90;999.90;;;18.00;99.90;;;;;;5047301;28;20687;-80
2022/06/28 08:46:51;;;;;;;1999.90;999.90;;;17.80;99.90;;;;;;5084643;28;20073;-80
2022/06/28 08:49:27;;;;;;;1999.90;999.90;;;17.90;99.90;;;;;;5087681;28;20099;-79
2022/06/28 08:51:55;;;;;;;1999.90;999.90;;;18.30;99.90;;;;;;5086457;28;20115;-78
2022/06/28 08:54:22;;;;;;;1999.90;999.90;;;18.50;99.90;;;;;;5077428;28;20119;-78
2022/06/28 08:56:49;;;;;;;1999.90;999.90;;;18.40;99.90;;;;;;5097692;28;20027;-78
2022/06/28 08:59:16;;;;;;;1999.90;999.90;;;18.50;99.90;;;;;;5075696;28;20028;-78
2022/06/28 09:01:42;;;;;;;1999.90;999.90;;;18.50;99.90;;;;;;5098690;28;20542;-79
2022/06/28 09:04:09;;;;;;;1999.90;999.90;;;18.60;99.90;;;;;;5050370;28;20039;-77
2022/06/28 09:06:35;;;;;;;1999.90;999.90;;;18.70;99.90;;;;;;5094240;28;20028;-79
2022/06/28 09:09:02;;;;;;;1999.90;999.90;;;18.60;99.90;;;;;;5071242;28;20028;-81
2022/06/28 09:11:39;;;;;;;1999.90;999.90;;;18.80;99.90;;;;;;5086754;28;20108;-78
2022/06/28 09:14:29;;;;;;;1999.90;999.90;;;18.60;99.90;;;;;;5088568;28;20028;-79
2022/06/28 09:16:55;;;;;;;;;;;18.70;99.90;;;;;;5074259;28;20019;-80
2022/06/28 09:19:54;;;;;;;1999.90;999.90;;;18.70;99.90;;;;;;5097368;28;20453;-81
2022/06/28 09:22:41;;;;;;;1999.90;999.90;;;18.50;99.90;;;;;;5056663;28;20044;-83
2022/06/28 09:25:09;;;;;;;1999.90;999.90;;;18.50;99.90;;;;;;5086596;28;20093;-81
2022/06/28 09:27:37;;;;;;;1999.90;999.90;;;18.60;99.90;;;;;;5082711;28;20048;-79
2022/06/28 09:30:12;;;;;;;1999.90;999.90;;;19.00;99.90;;;;;;5080547;28;20038;-79
2022/06/28 09:32:38;;;;;;;1999.90;999.90;;;19.20;99.90;;;;;;5076997;28;20033;-79
2022/06/28 09:35:09;;;;;;;1999.90;999.90;;;18.80;99.90;;;;;;5101042;28;20040;-78
2022/06/28 09:37:49;;;;;;;1999.90;999.90;;;18.50;99.90;;;;;;5077383;28;20035;-79
2022/06/28 09:40:22;;;;;;;1999.90;999.90;;;18.30;99.90;;;;;;5085939;28;20037;-78
2022/06/28 09:43:09;;;;;;;1999.90;999.90;;;18.60;99.90;;;;;;5094428;28;20024;-78
2022/06/28 09:45:50;;;;;;;1999.90;999.90;;;18.50;99.90;;;;;;5072804;28;20023;-79
2022/06/28 09:48:17;;;;;;;1999.90;999.90;;;18.10;99.90;;;;;;5077669;28;20110;-79
2022/06/28 09:50:43;;;;;;;1999.90;999.90;;;17.70;99.90;;;;;;5087922;28;20107;-79
2022/06/28 09:53:10;;;;;;;1999.90;999.90;;;17.70;99.90;;;;;;5104813;28;20126;-80
2022/06/28 09:55:35;;;;;;;1999.90;999.90;;;17.90;99.90;;;;;;5104496;28;20071;-80
2022/06/28 09:58:03;;;;;;;1999.90;999.90;;;17.80;99.90;;;;;;5098983;28;20052;-80
2022/06/28 10:00:30;;;;;;;1999.90;903.22;;;17.60;99.90;;;;;;5077946;28;20032;-82
2022/06/28 10:02:57;;;;;;;1959.22;845.55;;;18.00;99.90;;;;;;5071736;28;20032;-83
2022/06/28 10:05:24;;;;;;;1999.90;999.90;;;18.20;99.90;;;;;;5091802;28;20028;-81
2022/06/28 10:07:49;;;;;;;1999.90;450.42;;;18.10;99.90;;;;;;5075772;28;20139;-81
2022/06/28 10:10:16;;;;;;;1999.90;999.90;;;18.30;99.90;;;;;;5088729;28;20114;-81
2022/06/28 10:15:32;;;;;;;1999.90;880.88;;;17.80;99.90;;;;;;5090991;28;20063;-85
2022/06/28 10:17:59;;;;;;;1999.90;755.30;;;18.10;99.90;;;;;;5093832;28;20035;-84
2022/06/28 10:20:30;;;;;;;1999.90;999.90;;;18.00;99.90;;;;;;5086185;28;20031;-86
2022/06/28 10:23:34;;;;;;;1999.90;999.90;;;17.80;99.90;;;;;;5084090;28;20031;-85
2022/06/28 10:26:14;;;;;;;1999.90;817.35;;;18.00;99.90;;;;;;5096964;28;20028;-84
2022/06/28 10:29:03;;;;;;;1999.90;999.90;;;18.50;99.90;;;;;;5089463;28;20759;-87
2022/06/28 10:31:30;;;;;;;1999.90;999.90;;;18.60;99.90;;;;;;5078099;28;20040;-87
2022/06/28 10:33:58;;;;;;;1999.90;999.90;;;18.90;99.90;;;;;;5096930;28;20103;-88
2022/06/28 10:36:26;;;;;;;1999.90;679.45;;;19.10;99.90;;;;;;5076418;28;20032;-88
2022/06/28 10:39:01;;;;;;;1999.90;854.83;;;19.20;99.90;;;;;;5072025;28;20024;-90
2022/06/28 10:41:42;;;;;;;1999.90;968.50;;;19.20;99.90;;;;;;5073417;28;20032;-90
2022/06/28 10:44:09;;;;;;;1999.90;979.05;;;19.10;99.90;;;;;;5092080;28;20020;-88
2022/06/28 10:46:36;;;;;;;1999.90;749.67;;;19.30;99.90;;;;;;5087492;28;20031;-88
2022/06/28 10:49:04;;;;;;;1999.90;919.17;;;18.80;99.90;;;;;;5087650;28;20106;-88
2022/06/28 10:51:30;;;;;;;1999.90;931.15;;;19.30;99.90;;;;;;5081548;28;20032;-84
2022/06/28 10:54:01;;;;;;;1999.90;993.00;;;19.50;99.90;;;;;;5061610;28;20408;-87
2022/06/28 10:56:29;;;;;;;1999.90;918.00;;;19.70;99.90;;;;;;5091462;28;20050;-89
2022/06/28 10:58:56;;;;;;;1999.90;963.10;;;19.70;99.90;;;;;;5063722;28;20039;-93
2022/06/28 11:01:40;;;;;;;1999.90;985.72;;;20.00;99.20;;;;;;5092719;28;20052;-90
2022/06/28 11:04:23;;;;;;;1999.90;999.90;;;20.00;99.90;;;;;;5076253;28;20056;-88
2022/06/28 11:06:55;;;;;;;1999.90;829.35;;;20.00;99.90;;;;;;5096177;28;20031;-93
2022/06/28 11:09:50;;;;;;;1999.90;999.90;;;20.20;99.90;;;;;;5085334;28;21228;-91
2022/06/28 11:12:28;;;;;;;1999.90;999.90;;;20.00;99.90;;;;;;5075101;28;20028;-93
2022/06/28 11:15:07;;;;;;;1999.90;999.90;;;20.60;99.90;;;;;;5090818;28;20028;-91
2022/06/28 11:17:44;;;;;;;1999.90;999.90;;;20.30;99.80;;;;;;5074960;28;20035;-88
2022/06/28 11:20:12;;;;;;;1999.90;999.90;;;20.40;99.90;;;;;;5078784;28;20031;-90
2022/06/28 11:22:40;;;;;;;1999.90;999.90;;;20.60;99.90;;;;;;5099940;28;20040;-87
2022/06/28 11:25:08;;;;;;;1999.90;999.90;;;21.40;95.00;;;;;;5075169;28;20104;-91
2022/06/28 11:27:34;;;;;;;1999.90;994.47;;;21.60;94.10;;;;;;5074903;28;20055;-86
2022/06/28 11:29:59;;;;;;;1999.90;999.90;;;22.00;90.20;;;;;;5058825;28;20028;-94
2022/06/28 11:32:30;;;;;;;1999.90;999.90;;;22.10;93.10;;;;;;5099585;28;20503;-92
2022/06/28 11:35:02;;;;;;;1999.90;999.90;;;21.70;91.10;;;;;;5097524;28;20055;-88
2022/06/28 11:37:29;;;;;;;1999.90;999.90;;;22.40;85.80;;;;;;5099850;28;20732;-85
2022/06/28 11:39:58;;;;;;;1999.90;999.90;;;22.40;91.20;;;;;;5092191;28;20045;-88
2022/06/28 11:42:23;;;;;;;1999.90;999.90;;;22.10;90.70;;;;;;5082705;28;20036;-93
2022/06/28 11:44:50;;;;;;;1999.90;927.42;;;22.20;91.30;;;;;;5055250;28;20047;-88
2022/06/28 11:47:17;;;;;;;1999.90;999.90;;;22.80;84.40;;;;;;5072958;28;20042;-92
2022/06/28 11:49:44;;;;;;;1999.90;999.90;;;22.40;82.50;;;;;;5073371;28;20111;-84
2022/06/28 11:52:16;;;;;;;1999.90;999.90;;;22.20;82.10;;;;;;5098964;28;20024;-88
2022/06/28 11:54:53;;;;;;;1999.90;999.90;;;22.80;83.80;;;;;;5102174;28;20506;-88
2022/06/28 11:57:18;;;;;;;1999.90;999.90;;;23.10;80.70;;;;;;5091608;28;20055;-90
2022/06/28 11:59:54;;;;;;;1999.90;999.90;;;22.50;83.80;;;;;;5081129;28;20040;-88
2022/06/28 12:02:55;;;;;;;1999.90;999.90;;;22.50;85.20;;;;;;5090272;28;20044;-89
2022/06/28 12:06:00;;;;;;;1999.90;999.90;;;22.30;80.20;;;;;;5090108;28;20256;-87
2022/06/28 12:08:45;;;;;;;1999.90;999.90;;;21.80;84.20;;;;;;5070569;28;20040;-93
2022/06/28 12:11:28;;;;;;;1999.90;999.90;;;21.60;87.00;;;;;;5094699;28;20028;-88
2022/06/28 12:14:09;;;;;;;1999.90;999.90;;;22.20;90.10;;;;;;5066434;28;20107;-88